createdAt,value
2019-03-16T00:02:35.154Z,2.53
2019-03-16T00:07:39.365Z,2.73
2019-03-16T00:12:43.695Z,2.20
2019-03-16T00:17:47.945Z,3.10
2019-03-16T00:22:52.278Z,1.93
2019-03-16T00:27:56.491Z,2.67
2019-03-16T00:33:00.729Z,2.70
2019-03-16T00:38:04.964Z,2.53
2019-03-16T00:43:09.222Z,2.80
2019-03-16T00:48:13.635Z,2.67
2019-03-16T00:53:17.877Z,2.80
2019-03-16T00:58:22.304Z,2.37
2019-03-16T01:03:26.589Z,3.07
2019-03-16T01:08:30.821Z,3.40
2019-03-16T01:13:35.046Z,3.03
2019-03-16T01:18:39.288Z,2.73
2019-03-16T01:23:43.510Z,2.90
2019-03-16T01:28:47.765Z,2.87
2019-03-16T01:33:52.033Z,3.30
2019-03-16T01:38:56.270Z,3.33
2019-03-16T01:44:00.517Z,3.07
2019-03-16T01:49:04.927Z,3.27
2019-03-16T01:54:09.173Z,2.70
2019-03-16T01:59:13.395Z,3.33
2019-03-16T02:04:17.614Z,3.10
2019-03-16T02:09:21.847Z,2.80
2019-03-16T02:14:26.080Z,3.47
2019-03-16T02:19:30.335Z,3.10
2019-03-16T02:24:34.600Z,3.73
2019-03-16T02:29:38.836Z,2.57
2019-03-16T02:34:43.070Z,3.10
2019-03-16T02:39:47.305Z,3.20
2019-03-16T02:44:51.534Z,3.00
2019-03-16T02:49:55.756Z,2.80
2019-03-16T02:54:59.997Z,3.60
2019-03-16T03:00:05.660Z,3.40
2019-03-16T03:05:10.246Z,3.10
2019-03-16T03:10:14.781Z,3.80
2019-03-16T03:15:19.009Z,3.23
2019-03-16T03:20:23.258Z,3.10
2019-03-16T03:25:27.476Z,3.17
2019-03-16T03:30:31.706Z,3.30
2019-03-16T03:35:35.930Z,3.37
2019-03-16T03:40:40.377Z,3.00
2019-03-16T03:45:44.624Z,3.67
2019-03-16T03:50:48.850Z,3.17
2019-03-16T03:55:53.076Z,3.00
2019-03-16T04:00:58.577Z,3.40
2019-03-16T04:06:02.821Z,3.40
2019-03-16T04:11:07.065Z,2.97
2019-03-16T04:16:11.283Z,2.67
2019-03-16T04:21:15.500Z,2.70
2019-03-16T04:26:19.723Z,3.27
2019-03-16T04:31:23.950Z,3.23
2019-03-16T04:36:28.196Z,3.13
2019-03-16T04:41:32.415Z,3.47
2019-03-16T04:46:36.636Z,3.43
2019-03-16T04:51:40.870Z,3.70
2019-03-16T04:56:45.092Z,3.17
2019-03-16T05:01:49.319Z,3.63
2019-03-16T05:06:53.605Z,3.43
2019-03-16T05:11:57.838Z,2.67
2019-03-16T05:17:02.254Z,3.80
2019-03-16T05:22:06.512Z,3.17
2019-03-16T05:27:10.790Z,3.37
2019-03-16T05:32:15.047Z,4.27
2019-03-16T05:37:19.267Z,2.80
2019-03-16T05:42:23.627Z,3.37
2019-03-16T05:47:27.899Z,3.00
2019-03-16T05:52:32.506Z,3.27
2019-03-16T05:57:36.745Z,3.10
2019-03-16T06:02:40.979Z,3.00
2019-03-16T06:07:45.197Z,3.77
2019-03-16T06:12:49.460Z,2.87
2019-03-16T06:17:53.705Z,4.03
2019-03-16T06:22:57.940Z,3.37
2019-03-16T06:28:02.164Z,3.53
2019-03-16T06:33:06.402Z,3.10
2019-03-16T06:38:10.657Z,3.23
2019-03-16T06:43:14.878Z,3.37
2019-03-16T06:48:19.107Z,3.27
2019-03-16T06:53:23.329Z,3.60
2019-03-16T06:58:27.567Z,2.80
2019-03-16T07:03:31.891Z,2.83
2019-03-16T07:08:36.124Z,3.47
2019-03-16T07:13:40.360Z,3.10
2019-03-16T07:18:44.606Z,3.53
2019-03-16T07:23:48.830Z,3.50
2019-03-16T07:28:53.055Z,4.10
2019-03-16T07:33:57.321Z,3.40
2019-03-16T07:39:01.547Z,4.53
2019-03-16T07:44:05.790Z,3.60
2019-03-16T07:49:10.029Z,3.93
2019-03-16T07:54:14.323Z,3.33
2019-03-16T07:59:18.563Z,4.10
2019-03-16T08:04:22.805Z,3.13
2019-03-16T08:09:27.044Z,3.20
2019-03-16T08:14:31.275Z,3.63
2019-03-16T08:19:35.621Z,4.97
2019-03-16T08:24:39.883Z,6.17
2019-03-16T08:29:44.200Z,5.10
2019-03-16T08:34:48.634Z,3.70
2019-03-16T08:39:52.980Z,4.00
2019-03-16T08:44:57.267Z,3.60
2019-03-16T08:50:01.668Z,4.20
2019-03-16T08:55:06.426Z,3.30
2019-03-16T09:00:11.115Z,3.17
2019-03-16T09:05:15.369Z,3.47
2019-03-16T09:10:19.595Z,3.30
2019-03-16T09:15:24.064Z,2.70
2019-03-16T09:20:28.314Z,3.20
2019-03-16T09:25:32.572Z,2.90
2019-03-16T09:30:36.941Z,3.47
2019-03-16T09:35:41.211Z,3.03
2019-03-16T09:40:45.492Z,3.63
2019-03-16T09:45:49.777Z,3.40
2019-03-16T09:50:54.015Z,3.97
2019-03-16T09:55:58.287Z,2.80
2019-03-16T10:01:02.909Z,3.20
2019-03-16T10:06:07.263Z,3.00
2019-03-16T10:11:11.524Z,2.80
2019-03-16T10:16:15.786Z,2.80
2019-03-16T10:21:20.129Z,2.97
2019-03-16T10:26:24.748Z,1.90
2019-03-16T10:31:29.007Z,2.30
2019-03-16T10:36:33.442Z,2.73
2019-03-16T10:41:37.689Z,2.80
2019-03-16T10:46:41.977Z,2.93
2019-03-16T10:51:46.233Z,3.23
2019-03-16T10:56:50.577Z,7.20
2019-03-16T11:01:54.841Z,1.90
2019-03-16T11:06:59.137Z,2.70
2019-03-16T11:12:03.359Z,2.03
2019-03-16T11:17:07.739Z,2.63
2019-03-16T11:22:11.972Z,2.70
2019-03-16T11:27:17.333Z,3.03
2019-03-16T11:32:21.706Z,2.17
2019-03-16T11:37:25.978Z,2.97
2019-03-16T11:42:30.231Z,1.90
2019-03-16T11:47:34.473Z,2.23
2019-03-16T11:52:38.727Z,1.77
2019-03-16T11:57:42.992Z,1.90
2019-03-16T12:02:47.239Z,1.67
2019-03-16T12:07:51.489Z,1.90
2019-03-16T12:12:55.740Z,2.03
2019-03-16T12:18:00.020Z,2.17
2019-03-16T12:23:04.289Z,2.10
2019-03-16T12:28:08.546Z,2.37
2019-03-16T12:33:12.835Z,2.83
2019-03-16T12:38:17.066Z,2.30
2019-03-16T12:43:21.315Z,2.67
2019-03-16T12:48:25.658Z,2.90
2019-03-16T12:53:29.928Z,3.00
2019-03-16T12:58:34.168Z,2.90
2019-03-16T13:03:38.411Z,3.50
2019-03-16T13:08:42.732Z,4.10
2019-03-16T13:13:46.974Z,3.03
2019-03-16T13:18:51.228Z,3.50
2019-03-16T13:23:55.469Z,3.60
2019-03-16T13:28:59.747Z,4.83
2019-03-16T13:34:04.205Z,3.80
2019-03-16T13:39:08.789Z,2.37
2019-03-16T13:44:13.005Z,2.13
2019-03-16T13:49:17.238Z,2.10
2019-03-16T13:54:21.467Z,2.90
2019-03-16T13:59:25.711Z,2.17
2019-03-16T14:04:29.958Z,2.27
2019-03-16T14:09:34.203Z,1.93
2019-03-16T14:14:38.881Z,2.23
2019-03-16T14:19:43.127Z,2.00
2019-03-16T14:24:47.369Z,2.00
2019-03-16T14:29:52.534Z,2.20
2019-03-16T14:34:56.757Z,2.00
2019-03-16T14:40:01.360Z,2.50
2019-03-16T14:45:06.713Z,3.03
2019-03-16T14:50:16.090Z,3.43
2019-03-16T14:55:19.562Z,3.20
2019-03-16T15:00:37.289Z,3.50
2019-03-16T15:05:31.503Z,3.80
2019-03-16T15:10:35.753Z,3.20
2019-03-16T15:15:40.033Z,3.30
2019-03-16T15:20:44.266Z,3.60
2019-03-16T15:25:48.509Z,3.33
2019-03-16T15:30:52.729Z,3.07
2019-03-16T15:35:56.967Z,3.40
2019-03-16T15:41:01.195Z,3.23
2019-03-16T15:46:05.450Z,4.13
2019-03-16T15:51:09.671Z,3.63
2019-03-16T15:56:13.907Z,4.73
2019-03-16T16:01:18.144Z,3.97
2019-03-16T16:06:23.315Z,4.07
2019-03-16T16:11:27.555Z,5.20
2019-03-16T16:16:31.825Z,5.80
2019-03-16T16:21:36.060Z,6.43
2019-03-16T16:26:40.291Z,7.47
2019-03-16T16:31:44.543Z,8.53
2019-03-16T16:36:48.771Z,7.00
2019-03-16T16:41:53.007Z,9.00
2019-03-16T16:46:57.269Z,8.27
2019-03-16T16:52:01.517Z,9.20
2019-03-16T16:57:05.772Z,8.40
2019-03-16T17:02:10.010Z,9.20
2019-03-16T17:07:14.324Z,11.70
2019-03-16T17:12:18.563Z,12.10
2019-03-16T17:17:34.711Z,10.90
2019-03-16T17:22:28.777Z,11.90
2019-03-16T17:27:33.009Z,11.43
2019-03-16T17:32:37.269Z,11.60
2019-03-16T17:37:41.516Z,10.93
2019-03-16T17:42:45.845Z,12.43
2019-03-16T17:47:50.084Z,12.70
2019-03-16T17:52:54.425Z,12.63
2019-03-16T17:57:58.679Z,14.33
2019-03-16T18:03:02.911Z,14.37
2019-03-16T18:08:07.155Z,15.20
2019-03-16T18:13:11.412Z,15.40
2019-03-16T18:18:15.648Z,29.50
2019-03-16T18:23:19.905Z,18.50
2019-03-16T18:28:24.151Z,18.23
2019-03-16T18:33:28.506Z,19.30
2019-03-16T18:38:32.746Z,22.33
2019-03-16T18:43:36.993Z,19.97
2019-03-16T18:48:41.267Z,19.10
2019-03-16T18:53:45.749Z,29.03
2019-03-16T18:58:50.101Z,20.30
2019-03-16T19:03:54.332Z,20.23
2019-03-16T19:08:58.795Z,20.63
2019-03-16T19:14:03.071Z,18.50
2019-03-16T19:19:07.345Z,19.37
2019-03-16T19:24:12.692Z,21.00
2019-03-16T19:29:16.984Z,20.10
2019-03-16T19:34:21.237Z,19.20
2019-03-16T19:39:25.569Z,19.40
2019-03-16T19:44:29.807Z,17.37
2019-03-16T19:49:34.293Z,15.57
2019-03-16T19:54:38.640Z,14.63
2019-03-16T19:59:42.919Z,14.10
2019-03-16T20:04:47.192Z,13.57
2019-03-16T20:09:51.444Z,12.77
2019-03-16T20:14:55.762Z,13.73
2019-03-16T20:20:00.081Z,14.27
2019-03-16T20:25:04.679Z,14.90
2019-03-16T20:30:09.509Z,14.93
2019-03-16T20:35:13.764Z,16.10
2019-03-16T20:40:18.065Z,13.53
2019-03-16T20:45:22.484Z,13.43
2019-03-16T20:50:26.918Z,13.20
2019-03-16T20:55:34.211Z,12.93
2019-03-16T21:00:37.178Z,12.63
2019-03-16T21:05:41.507Z,13.60
2019-03-16T21:10:45.852Z,10.80
2019-03-16T21:15:50.115Z,11.50
2019-03-16T21:20:54.402Z,10.27
2019-03-16T21:25:58.659Z,9.77
2019-03-16T21:31:02.946Z,8.23
2019-03-16T21:36:07.167Z,7.20
2019-03-16T21:41:11.420Z,7.43
2019-03-16T21:46:15.661Z,6.93
2019-03-16T21:51:19.909Z,6.83
2019-03-16T21:56:24.145Z,8.40
2019-03-16T22:01:28.389Z,5.77
2019-03-16T22:06:32.631Z,5.90
2019-03-16T22:11:36.860Z,5.23
2019-03-16T22:16:41.111Z,4.67
2019-03-16T22:21:45.337Z,5.80
2019-03-16T22:26:49.582Z,4.40
2019-03-16T22:31:53.815Z,3.37
2019-03-16T22:36:58.051Z,3.97
2019-03-16T22:42:02.398Z,4.20
2019-03-16T22:47:06.621Z,3.53
2019-03-16T22:52:10.872Z,4.17
2019-03-16T22:57:15.096Z,3.53
2019-03-16T23:02:19.367Z,4.50
2019-03-16T23:07:23.607Z,4.20
2019-03-16T23:12:27.861Z,5.83
2019-03-16T23:17:32.099Z,4.40
2019-03-16T23:22:36.428Z,4.00
2019-03-16T23:27:40.686Z,3.97
2019-03-16T23:32:44.922Z,4.07
2019-03-16T23:37:49.230Z,3.70
2019-03-16T23:42:53.458Z,2.97
2019-03-16T23:47:57.684Z,3.60
2019-03-16T23:53:01.927Z,3.80
2019-03-16T23:58:06.151Z,3.60
